sensor_id;sensor_type;location;lat;lon;timestamp;P1;durP1;ratioP1;P2;durP2;ratioP2
11141;SDS011;5625;50.122;19.864;2024-03-23T00:54:22;44.63;;;34.73;;
11141;SDS011;5625;50.122;19.864;2024-03-23T00:56:49;44.67;;;34.13;;
11141;SDS011;5625;50.122;19.864;2024-03-23T00:59:22;47.43;;;35.37;;
11141;SDS011;5625;50.122;19.864;2024-03-23T01:01:52;46.43;;;34.47;;
11141;SDS011;5625;50.122;19.864;2024-03-23T01:04:19;47.30;;;35.87;;
11141;SDS011;5625;50.122;19.864;2024-03-23T01:06:46;47.53;;;35.67;;
11141;SDS011;5625;50.122;19.864;2024-03-23T01:09:12;46.70;;;34.63;;
11141;SDS011;5625;50.122;19.864;2024-03-23T01:11:41;47.67;;;35.03;;
11141;SDS011;5625;50.122;19.864;2024-03-23T01:14:07;41.50;;;32.20;;
11141;SDS011;5625;50.122;19.864;2024-03-23T01:16:34;39.60;;;32.67;;
11141;SDS011;5625;50.122;19.864;2024-03-23T01:19:01;45.77;;;35.07;;
11141;SDS011;5625;50.122;19.864;2024-03-23T01:21:28;45.17;;;34.77;;
11141;SDS011;5625;50.122;19.864;2024-03-23T01:23:54;44.77;;;34.63;;
11141;SDS011;5625;50.122;19.864;2024-03-23T01:26:21;42.57;;;34.00;;
11141;SDS011;5625;50.122;19.864;2024-03-23T01:28:49;42.33;;;33.30;;
11141;SDS011;5625;50.122;19.864;2024-03-23T01:31:16;42.77;;;33.83;;
11141;SDS011;5625;50.122;19.864;2024-03-23T01:33:42;46.63;;;35.40;;
11141;SDS011;5625;50.122;19.864;2024-03-23T01:36:10;52.37;;;38.93;;
11141;SDS011;5625;50.122;19.864;2024-03-23T01:38:36;52.13;;;38.27;;
11141;SDS011;5625;50.122;19.864;2024-03-23T01:41:03;50.93;;;39.10;;
11141;SDS011;5625;50.122;19.864;2024-03-23T01:43:29;50.13;;;37.40;;
11141;SDS011;5625;50.122;19.864;2024-03-23T01:45:58;45.73;;;34.90;;
11141;SDS011;5625;50.122;19.864;2024-03-23T01:48:25;47.57;;;35.57;;
11141;SDS011;5625;50.122;19.864;2024-03-23T01:50:52;46.57;;;35.37;;
11141;SDS011;5625;50.122;19.864;2024-03-23T01:53:18;46.37;;;34.87;;
11141;SDS011;5625;50.122;19.864;2024-03-23T01:55:47;47.63;;;35.60;;
11141;SDS011;5625;50.122;19.864;2024-03-23T01:58:13;44.60;;;33.57;;
11141;SDS011;5625;50.122;19.864;2024-03-23T02:00:40;43.63;;;33.53;;
11141;SDS011;5625;50.122;19.864;2024-03-23T02:06:02;45.17;;;34.60;;
11141;SDS011;5625;50.122;19.864;2024-03-23T02:08:32;45.93;;;34.83;;
11141;SDS011;5625;50.122;19.864;2024-03-23T02:10:59;47.83;;;36.50;;
11141;SDS011;5625;50.122;19.864;2024-03-23T02:13:27;49.77;;;37.17;;
11141;SDS011;5625;50.122;19.864;2024-03-23T02:15:53;46.23;;;35.77;;
11141;SDS011;5625;50.122;19.864;2024-03-23T02:18:20;46.97;;;37.67;;
11141;SDS011;5625;50.122;19.864;2024-03-23T02:20:46;47.20;;;36.37;;
11141;SDS011;5625;50.122;19.864;2024-03-23T02:23:15;46.10;;;36.03;;
11141;SDS011;5625;50.122;19.864;2024-03-23T02:25:43;49.33;;;37.93;;
11141;SDS011;5625;50.122;19.864;2024-03-23T02:28:10;47.83;;;36.73;;
11141;SDS011;5625;50.122;19.864;2024-03-23T02:30:37;45.33;;;35.33;;
11141;SDS011;5625;50.122;19.864;2024-03-23T02:33:04;47.77;;;36.27;;
11141;SDS011;5625;50.122;19.864;2024-03-23T02:35:30;45.20;;;34.43;;
11141;SDS011;5625;50.122;19.864;2024-03-23T02:37:58;45.43;;;34.63;;
11141;SDS011;5625;50.122;19.864;2024-03-23T02:40:26;43.97;;;33.83;;
11141;SDS011;5625;50.122;19.864;2024-03-23T02:42:54;44.57;;;32.47;;
11141;SDS011;5625;50.122;19.864;2024-03-23T02:45:20;41.90;;;33.33;;
11141;SDS011;5625;50.122;19.864;2024-03-23T02:47:47;37.83;;;31.53;;
11141;SDS011;5625;50.122;19.864;2024-03-23T02:50:17;37.40;;;30.40;;
11141;SDS011;5625;50.122;19.864;2024-03-23T02:52:44;40.80;;;32.03;;
11141;SDS011;5625;50.122;19.864;2024-03-23T02:55:11;34.53;;;27.97;;
11141;SDS011;5625;50.122;19.864;2024-03-23T02:57:40;35.97;;;27.87;;
11141;SDS011;5625;50.122;19.864;2024-03-23T03:00:06;34.80;;;28.37;;
11141;SDS011;5625;50.122;19.864;2024-03-23T03:02:35;35.97;;;28.37;;
11141;SDS011;5625;50.122;19.864;2024-03-23T03:05:02;35.10;;;28.37;;
11141;SDS011;5625;50.122;19.864;2024-03-23T03:07:32;36.03;;;29.13;;
11141;SDS011;5625;50.122;19.864;2024-03-23T03:09:58;37.77;;;28.77;;
11141;SDS011;5625;50.122;19.864;2024-03-23T03:12:25;32.77;;;26.53;;
11141;SDS011;5625;50.122;19.864;2024-03-23T03:14:53;33.17;;;27.37;;
11141;SDS011;5625;50.122;19.864;2024-03-23T03:17:21;37.43;;;28.37;;
11141;SDS011;5625;50.122;19.864;2024-03-23T03:19:48;38.33;;;29.63;;
11141;SDS011;5625;50.122;19.864;2024-03-23T03:22:20;38.47;;;29.70;;
11141;SDS011;5625;50.122;19.864;2024-03-23T03:24:48;40.83;;;32.00;;
11141;SDS011;5625;50.122;19.864;2024-03-23T03:27:14;38.80;;;31.27;;
11141;SDS011;5625;50.122;19.864;2024-03-23T03:29:41;39.90;;;30.90;;
11141;SDS011;5625;50.122;19.864;2024-03-23T03:32:09;40.90;;;31.20;;
11141;SDS011;5625;50.122;19.864;2024-03-23T03:34:37;40.37;;;31.83;;
11141;SDS011;5625;50.122;19.864;2024-03-23T03:37:03;43.33;;;32.17;;
11141;SDS011;5625;50.122;19.864;2024-03-23T03:39:31;44.73;;;34.67;;
11141;SDS011;5625;50.122;19.864;2024-03-23T03:41:57;43.33;;;33.87;;
11141;SDS011;5625;50.122;19.864;2024-03-23T03:44:25;42.50;;;32.53;;
11141;SDS011;5625;50.122;19.864;2024-03-23T03:46:52;44.37;;;33.73;;
11141;SDS011;5625;50.122;19.864;2024-03-23T03:49:20;43.90;;;33.20;;
11141;SDS011;5625;50.122;19.864;2024-03-23T03:51:46;47.13;;;35.60;;
11141;SDS011;5625;50.122;19.864;2024-03-23T03:54:14;44.93;;;33.47;;
11141;SDS011;5625;50.122;19.864;2024-03-23T03:56:40;47.47;;;35.87;;
11141;SDS011;5625;50.122;19.864;2024-03-23T03:59:07;46.23;;;34.93;;
11141;SDS011;5625;50.122;19.864;2024-03-23T04:01:33;43.60;;;33.00;;
11141;SDS011;5625;50.122;19.864;2024-03-23T04:04:00;44.73;;;34.40;;
11141;SDS011;5625;50.122;19.864;2024-03-23T04:06:29;46.37;;;34.80;;
11141;SDS011;5625;50.122;19.864;2024-03-23T04:08:56;40.97;;;32.00;;
11141;SDS011;5625;50.122;19.864;2024-03-23T04:11:23;44.47;;;32.67;;
11141;SDS011;5625;50.122;19.864;2024-03-23T04:13:50;43.67;;;33.33;;
11141;SDS011;5625;50.122;19.864;2024-03-23T04:16:24;41.67;;;31.43;;
11141;SDS011;5625;50.122;19.864;2024-03-23T04:18:54;38.77;;;30.90;;
11141;SDS011;5625;50.122;19.864;2024-03-23T04:21:29;41.57;;;32.17;;
11141;SDS011;5625;50.122;19.864;2024-03-23T04:24:06;43.90;;;33.70;;
11141;SDS011;5625;50.122;19.864;2024-03-23T04:26:44;39.47;;;31.97;;
11141;SDS011;5625;50.122;19.864;2024-03-23T04:29:18;41.30;;;32.27;;
11141;SDS011;5625;50.122;19.864;2024-03-23T04:31:45;41.90;;;32.60;;
11141;SDS011;5625;50.122;19.864;2024-03-23T04:34:14;39.63;;;32.30;;
11141;SDS011;5625;50.122;19.864;2024-03-23T04:36:58;42.67;;;31.27;;
11141;SDS011;5625;50.122;19.864;2024-03-23T04:39:30;40.57;;;31.77;;
11141;SDS011;5625;50.122;19.864;2024-03-23T04:42:10;40.10;;;31.10;;
11141;SDS011;5625;50.122;19.864;2024-03-23T04:44:53;36.77;;;28.97;;
11141;SDS011;5625;50.122;19.864;2024-03-23T04:47:30;40.57;;;30.17;;
11141;SDS011;5625;50.122;19.864;2024-03-23T04:50:10;36.20;;;28.40;;
11141;SDS011;5625;50.122;19.864;2024-03-23T04:52:48;36.43;;;27.53;;
11141;SDS011;5625;50.122;19.864;2024-03-23T04:55:22;35.47;;;29.30;;
11141;SDS011;5625;50.122;19.864;2024-03-23T04:57:56;40.63;;;31.27;;
11141;SDS011;5625;50.122;19.864;2024-03-23T05:00:29;38.00;;;30.50;;
11141;SDS011;5625;50.122;19.864;2024-03-23T05:03:03;41.17;;;32.23;;
